createdAt,value
2023-05-24T00:00:49.776Z,1021.36
2023-05-24T00:01:49.801Z,1021.36
2023-05-24T00:02:49.955Z,1021.36
2023-05-24T00:03:49.954Z,1021.38
2023-05-24T00:04:49.802Z,1021.37
2023-05-24T00:05:49.779Z,1021.31
2023-05-24T00:06:49.781Z,1021.36
2023-05-24T00:07:49.780Z,1021.37
2023-05-24T00:08:49.769Z,1021.39
2023-05-24T00:09:49.767Z,1021.36
2023-05-24T00:10:49.777Z,1021.34
2023-05-24T00:11:49.800Z,1021.33
2023-05-24T00:12:49.781Z,1021.33
2023-05-24T00:13:49.773Z,1021.3
2023-05-24T00:14:49.773Z,1021.36
2023-05-24T00:15:49.782Z,1021.32
2023-05-24T00:16:49.807Z,1021.37
2023-05-24T00:17:49.865Z,1021.41
2023-05-24T00:18:49.777Z,1021.36
2023-05-24T00:19:49.802Z,1021.34
2023-05-24T00:20:49.859Z,1021.39
2023-05-24T00:21:49.779Z,1021.38
2023-05-24T00:22:49.772Z,1021.41
2023-05-24T00:23:49.779Z,1021.43
2023-05-24T00:24:49.779Z,1021.39
2023-05-24T00:25:49.786Z,1021.4
2023-05-24T00:26:49.771Z,1021.38
2023-05-24T00:27:49.777Z,1021.36
2023-05-24T00:28:49.776Z,1021.34
2023-05-24T00:29:49.773Z,1021.32
2023-05-24T00:30:49.779Z,1021.38
2023-05-24T00:31:49.817Z,1021.33
2023-05-24T00:32:49.806Z,1021.31
2023-05-24T00:33:49.788Z,1021.3
2023-05-24T00:34:49.785Z,1021.32
2023-05-24T00:35:49.790Z,1021.28
2023-05-24T00:36:49.786Z,1021.27
2023-05-24T00:37:49.778Z,1021.25
2023-05-24T00:38:49.780Z,1021.25
2023-05-24T00:39:49.784Z,1021.25
2023-05-24T00:40:49.783Z,1021.29
2023-05-24T00:41:49.789Z,1021.29
2023-05-24T00:42:49.778Z,1021.27
2023-05-24T00:43:49.797Z,1021.29
2023-05-24T00:44:49.788Z,1021.29
2023-05-24T00:45:49.820Z,1021.34
2023-05-24T00:46:49.794Z,1021.33
2023-05-24T00:47:49.809Z,1021.34
2023-05-24T00:48:49.804Z,1021.31
2023-05-24T00:49:49.786Z,1021.35
2023-05-24T00:50:49.784Z,1021.32
2023-05-24T00:51:49.781Z,1021.33
2023-05-24T00:52:49.775Z,1021.32
2023-05-24T00:53:49.791Z,1021.3
2023-05-24T00:54:49.800Z,1021.29
2023-05-24T00:55:49.782Z,1021.3
2023-05-24T00:56:49.773Z,1021.31
2023-05-24T00:57:49.787Z,1021.26
2023-05-24T00:58:49.783Z,1021.28
2023-05-24T00:59:49.785Z,1021.28
2023-05-24T01:00:49.815Z,1021.28
2023-05-24T01:01:49.925Z,1021.28
2023-05-24T01:02:49.859Z,1021.31
2023-05-24T01:03:49.872Z,1021.35
2023-05-24T01:04:49.780Z,1021.37
2023-05-24T01:05:49.781Z,1021.37
2023-05-24T01:06:49.782Z,1021.37
2023-05-24T01:07:49.794Z,1021.42
2023-05-24T01:08:49.794Z,1021.44
2023-05-24T01:09:49.779Z,1021.45
2023-05-24T01:10:49.780Z,1021.44
2023-05-24T01:11:49.799Z,1021.47
2023-05-24T01:12:49.802Z,1021.53
2023-05-24T01:13:49.786Z,1021.54
2023-05-24T01:14:49.794Z,1021.55
2023-05-24T01:15:49.822Z,1021.52
2023-05-24T01:16:49.790Z,1021.56
2023-05-24T01:17:49.859Z,1021.59
2023-05-24T01:18:49.788Z,1021.6
2023-05-24T01:19:50.036Z,1021.56
2023-05-24T01:20:49.909Z,1021.57
2023-05-24T01:21:49.785Z,1021.63
2023-05-24T01:22:49.805Z,1021.6
2023-05-24T01:23:49.777Z,1021.61
2023-05-24T01:24:49.786Z,1021.63
2023-05-24T01:25:49.786Z,1021.64
2023-05-24T01:26:49.789Z,1021.67
2023-05-24T01:27:49.771Z,1021.63
2023-05-24T01:28:49.776Z,1021.62
2023-05-24T01:29:49.777Z,1021.67
2023-05-24T01:30:49.792Z,1021.71
2023-05-24T01:31:49.827Z,1021.73
2023-05-24T01:32:49.848Z,1021.73
2023-05-24T01:33:49.781Z,1021.78
2023-05-24T01:34:49.790Z,1021.77
2023-05-24T01:35:49.797Z,1021.75
2023-05-24T01:36:49.793Z,1021.77
2023-05-24T01:37:49.788Z,1021.79
2023-05-24T01:38:49.784Z,1021.76
2023-05-24T01:39:49.776Z,1021.77
2023-05-24T01:40:49.794Z,1021.75
2023-05-24T01:41:49.781Z,1021.81
2023-05-24T01:42:49.788Z,1021.75
2023-05-24T01:43:49.799Z,1021.78
2023-05-24T01:44:49.776Z,1021.77
2023-05-24T01:45:49.794Z,1021.75
2023-05-24T01:46:49.870Z,1021.8
2023-05-24T01:47:49.854Z,1021.83
2023-05-24T01:48:49.788Z,1021.84
2023-05-24T01:49:49.779Z,1021.82
2023-05-24T01:50:49.791Z,1021.85
2023-05-24T01:51:49.815Z,1021.85
2023-05-24T01:52:49.796Z,1021.86
2023-05-24T01:53:49.782Z,1021.85
2023-05-24T01:54:49.788Z,1021.89
2023-05-24T01:55:49.794Z,1021.92
2023-05-24T01:56:49.787Z,1021.91
2023-05-24T01:57:49.792Z,1021.9
2023-05-24T01:58:49.796Z,1021.94
2023-05-24T01:59:49.796Z,1021.89
2023-05-24T02:00:49.814Z,1021.92
2023-05-24T02:01:49.832Z,1021.92
2023-05-24T02:02:49.848Z,1021.92
2023-05-24T02:03:49.779Z,1021.94
2023-05-24T02:04:49.792Z,1021.9
2023-05-24T02:05:49.778Z,1021.94
2023-05-24T02:06:49.785Z,1021.92
2023-05-24T02:07:49.793Z,1021.96
2023-05-24T02:08:49.789Z,1021.95
2023-05-24T02:09:49.776Z,1021.91
2023-05-24T02:10:49.785Z,1021.95
2023-05-24T02:11:49.782Z,1021.9
2023-05-24T02:12:49.794Z,1021.94
2023-05-24T02:13:49.785Z,1021.94
2023-05-24T02:14:49.784Z,1021.95
2023-05-24T02:15:49.805Z,1021.95
2023-05-24T02:16:49.807Z,1021.96
2023-05-24T02:17:49.841Z,1021.94
2023-05-24T02:18:49.784Z,1021.95
2023-05-24T02:19:49.821Z,1021.95
2023-05-24T02:20:49.787Z,1021.96
2023-05-24T02:21:49.785Z,1022
2023-05-24T02:22:49.788Z,1021.94
2023-05-24T02:23:49.780Z,1021.96
2023-05-24T02:24:49.783Z,1021.89
2023-05-24T02:25:49.813Z,1021.94
2023-05-24T02:26:49.793Z,1021.94
2023-05-24T02:27:49.799Z,1021.89
2023-05-24T02:28:49.786Z,1021.89
2023-05-24T02:29:49.779Z,1021.85
2023-05-24T02:30:49.830Z,1021.86
2023-05-24T02:31:49.829Z,1021.92
2023-05-24T02:32:49.879Z,1021.87
2023-05-24T02:33:49.786Z,1021.84
2023-05-24T02:34:49.788Z,1021.87
2023-05-24T02:35:49.788Z,1021.83
2023-05-24T02:36:49.789Z,1021.84
2023-05-24T02:37:49.787Z,1021.81
2023-05-24T02:38:49.784Z,1021.84
2023-05-24T02:39:49.786Z,1021.8
2023-05-24T02:40:49.778Z,1021.82
2023-05-24T02:41:49.791Z,1021.81
2023-05-24T02:42:49.790Z,1021.79
2023-05-24T02:43:49.780Z,1021.77
2023-05-24T02:44:49.780Z,1021.74
2023-05-24T02:45:49.830Z,1021.74
2023-05-24T02:46:49.795Z,1021.76
2023-05-24T02:47:49.800Z,1021.72
2023-05-24T02:48:49.815Z,1021.78
2023-05-24T02:49:49.777Z,1021.79
2023-05-24T02:50:49.788Z,1021.77
2023-05-24T02:51:49.778Z,1021.81
2023-05-24T02:52:49.788Z,1021.77
2023-05-24T02:53:49.778Z,1021.81
2023-05-24T02:54:49.781Z,1021.78
2023-05-24T02:55:49.786Z,1021.79
2023-05-24T02:56:49.772Z,1021.82
2023-05-24T02:57:49.782Z,1021.8
2023-05-24T02:58:49.787Z,1021.81
2023-05-24T02:59:49.800Z,1021.86
2023-05-24T03:00:49.794Z,1021.84
2023-05-24T03:01:49.826Z,1021.88
2023-05-24T03:02:49.860Z,1021.82
2023-05-24T03:03:49.857Z,1021.8
2023-05-24T03:04:49.785Z,1021.83
2023-05-24T03:05:49.784Z,1021.83
2023-05-24T03:06:49.782Z,1021.88
2023-05-24T03:07:49.777Z,1021.87
2023-05-24T03:08:49.814Z,1021.94
2023-05-24T03:09:49.793Z,1021.91
2023-05-24T03:10:49.792Z,1021.88
2023-05-24T03:11:49.789Z,1021.91
2023-05-24T03:12:49.783Z,1021.9
2023-05-24T03:13:49.799Z,1021.92
2023-05-24T03:14:49.788Z,1021.98
2023-05-24T03:15:49.858Z,1022.03
2023-05-24T03:16:49.783Z,1022.02
2023-05-24T03:17:49.811Z,1021.94
2023-05-24T03:18:49.785Z,1021.98
2023-05-24T03:19:49.812Z,1021.98
2023-05-24T03:20:49.789Z,1021.94
2023-05-24T03:21:49.784Z,1021.95
2023-05-24T03:22:49.784Z,1021.99
2023-05-24T03:23:49.786Z,1021.99
2023-05-24T03:24:49.795Z,1022.02
2023-05-24T03:25:49.793Z,1022.04
2023-05-24T03:26:49.775Z,1022.05
2023-05-24T03:27:49.779Z,1022.1
2023-05-24T03:28:49.799Z,1022.11
2023-05-24T03:29:49.788Z,1022.19
2023-05-24T03:30:49.787Z,1022.14
2023-05-24T03:31:49.848Z,1022.19
2023-05-24T03:32:49.808Z,1022.21
2023-05-24T03:33:49.776Z,1022.19
2023-05-24T03:34:49.792Z,1022.22
2023-05-24T03:35:49.789Z,1022.22
2023-05-24T03:36:49.815Z,1022.21
2023-05-24T03:37:49.792Z,1022.15
2023-05-24T03:38:49.791Z,1022.2
2023-05-24T03:39:49.792Z,1022.21
2023-05-24T03:40:49.788Z,1022.23
2023-05-24T03:41:49.781Z,1022.24
2023-05-24T03:42:49.797Z,1022.23
2023-05-24T03:43:49.794Z,1022.22
2023-05-24T03:45:45.449Z,1022.25
2023-05-24T03:46:44.406Z,1022.28
2023-05-24T03:47:44.445Z,1022.25
2023-05-24T03:48:44.401Z,1022.25
2023-05-24T03:49:44.391Z,1022.24
2023-05-24T03:50:44.617Z,1022.28
2023-05-24T03:51:44.400Z,1022.29
2023-05-24T03:52:44.392Z,1022.27
2023-05-24T03:53:44.372Z,1022.24
2023-05-24T03:54:44.398Z,1022.23
2023-05-24T03:55:44.389Z,1022.27
2023-05-24T03:56:44.396Z,1022.25
2023-05-24T03:57:44.394Z,1022.26
2023-05-24T03:58:44.401Z,1022.19
2023-05-24T03:59:44.412Z,1022.21
2023-05-24T04:00:44.542Z,1022.2
2023-05-24T04:01:44.398Z,1022.21
2023-05-24T04:02:44.521Z,1022.24
2023-05-24T04:03:44.519Z,1022.22
2023-05-24T04:04:44.377Z,1022.24
2023-05-24T04:05:44.397Z,1022.23
2023-05-24T04:06:44.384Z,1022.25
2023-05-24T04:07:44.388Z,1022.26
2023-05-24T04:08:44.385Z,1022.28
2023-05-24T04:09:44.419Z,1022.3
2023-05-24T04:10:44.626Z,1022.25
2023-05-24T04:11:44.387Z,1022.29
2023-05-24T04:12:44.378Z,1022.26
2023-05-24T04:13:44.386Z,1022.31
2023-05-24T04:14:44.393Z,1022.32
2023-05-24T04:15:44.391Z,1022.32
2023-05-24T04:16:44.465Z,1022.28
2023-05-24T04:17:44.606Z,1022.3
2023-05-24T04:18:44.492Z,1022.29
2023-05-24T04:19:44.431Z,1022.29
2023-05-24T04:20:44.662Z,1022.28
2023-05-24T04:21:44.384Z,1022.34
2023-05-24T04:22:44.379Z,1022.33
2023-05-24T04:23:44.392Z,1022.33
2023-05-24T04:24:44.428Z,1022.35
2023-05-24T04:25:44.387Z,1022.38
2023-05-24T04:26:44.392Z,1022.42
2023-05-24T04:27:44.385Z,1022.37
2023-05-24T04:28:44.394Z,1022.38
2023-05-24T04:29:44.387Z,1022.41
2023-05-24T04:30:44.474Z,1022.46
2023-05-24T04:31:44.486Z,1022.44
2023-05-24T04:32:44.443Z,1022.43
2023-05-24T04:33:44.397Z,1022.45
2023-05-24T04:34:44.385Z,1022.43
2023-05-24T04:35:44.377Z,1022.42
2023-05-24T04:36:44.382Z,1022.42
2023-05-24T04:37:44.394Z,1022.43
2023-05-24T04:38:44.393Z,1022.38
2023-05-24T04:39:44.395Z,1022.37
2023-05-24T04:40:44.616Z,1022.43
2023-05-24T04:41:44.375Z,1022.51
2023-05-24T04:42:44.391Z,1022.48
2023-05-24T04:43:44.396Z,1022.5
2023-05-24T04:44:44.372Z,1022.51
2023-05-24T04:45:44.394Z,1022.51
2023-05-24T04:46:44.426Z,1022.55
2023-05-24T04:47:44.429Z,1022.53
2023-05-24T04:48:44.388Z,1022.51
2023-05-24T04:49:44.380Z,1022.56
2023-05-24T04:50:44.551Z,1022.54
2023-05-24T04:51:44.367Z,1022.54
2023-05-24T04:52:44.388Z,1022.58
2023-05-24T04:53:44.370Z,1022.63
2023-05-24T04:54:44.377Z,1022.59
2023-05-24T04:55:44.389Z,1022.61
2023-05-24T04:56:44.393Z,1022.59
2023-05-24T04:57:44.388Z,1022.59
2023-05-24T04:58:44.395Z,1022.61
2023-05-24T04:59:44.379Z,1022.6
2023-05-24T05:00:44.442Z,1022.6
2023-05-24T05:01:44.412Z,1022.59
2023-05-24T05:02:44.444Z,1022.52
2023-05-24T05:03:44.469Z,1022.57
2023-05-24T05:04:44.381Z,1022.59
2023-05-24T05:05:44.385Z,1022.57
2023-05-24T05:06:44.379Z,1022.54
2023-05-24T05:07:44.388Z,1022.57
2023-05-24T05:08:44.401Z,1022.63
2023-05-24T05:09:44.385Z,1022.63
2023-05-24T05:10:44.501Z,1022.63
2023-05-24T05:11:44.382Z,1022.65
2023-05-24T05:12:44.383Z,1022.66
2023-05-24T05:13:44.385Z,1022.63
2023-05-24T05:14:44.398Z,1022.66
2023-05-24T05:15:44.396Z,1022.69
2023-05-24T05:16:44.401Z,1022.64
2023-05-24T05:17:44.413Z,1022.67
2023-05-24T05:18:44.371Z,1022.66
2023-05-24T05:19:44.381Z,1022.66
2023-05-24T05:20:44.757Z,1022.73
2023-05-24T05:21:44.380Z,1022.71
2023-05-24T05:22:44.365Z,1022.73
2023-05-24T05:23:44.375Z,1022.79
2023-05-24T05:24:44.389Z,1022.74
2023-05-24T05:25:44.387Z,1022.77
2023-05-24T05:26:44.380Z,1022.74
2023-05-24T05:27:44.385Z,1022.76
2023-05-24T05:28:44.387Z,1022.77
2023-05-24T05:29:44.404Z,1022.8
2023-05-24T05:30:44.538Z,1022.8
2023-05-24T05:31:44.385Z,1022.8
2023-05-24T05:32:44.454Z,1022.82
2023-05-24T05:33:44.370Z,1022.8
2023-05-24T05:34:44.379Z,1022.76
2023-05-24T05:35:44.369Z,1022.81
2023-05-24T05:36:44.396Z,1022.81
2023-05-24T05:37:44.384Z,1022.85
2023-05-24T05:38:44.386Z,1022.85
2023-05-24T05:39:44.383Z,1022.78
2023-05-24T05:40:44.513Z,1022.83
2023-05-24T05:41:45.954Z,1022.84
2023-05-24T05:42:44.398Z,1022.89
2023-05-24T05:43:44.389Z,1022.84
2023-05-24T05:44:44.390Z,1022.79
2023-05-24T05:45:44.402Z,1022.79
2023-05-24T05:46:44.388Z,1022.77
2023-05-24T05:47:44.434Z,1022.77
2023-05-24T05:48:46.313Z,1022.76
2023-05-24T05:49:44.383Z,1022.79
2023-05-24T05:50:44.501Z,1022.82
2023-05-24T05:51:44.390Z,1022.82
2023-05-24T05:52:44.394Z,1022.79
2023-05-24T05:53:44.394Z,1022.8
2023-05-24T05:54:44.384Z,1022.81
2023-05-24T05:55:44.376Z,1022.81
2023-05-24T05:56:44.379Z,1022.84
2023-05-24T05:57:44.392Z,1022.82
2023-05-24T05:58:44.377Z,1022.84
2023-05-24T05:59:44.379Z,1022.83
2023-05-24T06:00:44.597Z,1022.82
2023-05-24T06:01:44.402Z,1022.88
2023-05-24T06:02:44.475Z,1022.92
2023-05-24T06:03:44.501Z,1022.85
2023-05-24T06:04:44.387Z,1022.9
2023-05-24T06:05:44.380Z,1022.9
2023-05-24T06:06:44.370Z,1022.9
2023-05-24T06:07:44.387Z,1022.93
2023-05-24T06:08:44.377Z,1022.97
2023-05-24T06:09:44.401Z,1022.98
2023-05-24T06:10:44.520Z,1022.96
2023-05-24T06:11:44.387Z,1022.99
2023-05-24T06:12:44.385Z,1022.99
2023-05-24T06:13:44.388Z,1022.99
2023-05-24T06:14:44.375Z,1023
2023-05-24T06:15:44.408Z,1023.02
2023-05-24T06:16:44.491Z,1023.02
2023-05-24T06:17:44.448Z,1023.01
2023-05-24T06:18:53.399Z,1023.01
2023-05-24T06:19:44.372Z,1023.01
2023-05-24T06:20:44.614Z,1023.03
2023-05-24T06:21:44.381Z,1023.08
2023-05-24T06:22:44.370Z,1023.1
2023-05-24T06:23:44.373Z,1023.08
2023-05-24T06:24:44.367Z,1023.11
2023-05-24T06:25:44.382Z,1023.17
2023-05-24T06:26:44.386Z,1023.16
2023-05-24T06:27:44.370Z,1023.15
2023-05-24T06:28:44.380Z,1023.13
2023-05-24T06:29:44.404Z,1023.17
2023-05-24T06:30:44.806Z,1023.08
2023-05-24T06:31:44.427Z,1023.07
2023-05-24T06:32:44.431Z,1023.1
2023-05-24T06:33:52.510Z,1023.11
2023-05-24T06:34:44.381Z,1023.12
2023-05-24T06:35:44.384Z,1023.1
2023-05-24T06:36:44.374Z,1023.1
2023-05-24T06:37:44.380Z,1023.08
2023-05-24T06:38:44.381Z,1023.13
2023-05-24T06:39:44.411Z,1023.07
2023-05-24T06:40:44.554Z,1023.14
2023-05-24T06:41:44.394Z,1023.11
2023-05-24T06:42:44.400Z,1023.08
2023-05-24T06:43:44.379Z,1023.07
2023-05-24T06:44:44.397Z,1023.06
2023-05-24T06:45:44.385Z,1023.08
2023-05-24T06:46:44.433Z,1023.12
2023-05-24T06:47:44.447Z,1023.08
2023-05-24T06:48:44.475Z,1023.13
2023-05-24T06:49:44.368Z,1023.14
2023-05-24T06:50:44.550Z,1023.18
2023-05-24T06:51:44.956Z,1023.16
2023-05-24T06:52:44.387Z,1023.19
2023-05-24T06:53:44.389Z,1023.21
2023-05-24T06:54:44.390Z,1023.18
2023-05-24T06:55:44.372Z,1023.2
2023-05-24T06:56:44.372Z,1023.22
2023-05-24T06:57:44.385Z,1023.22
2023-05-24T06:58:44.397Z,1023.22
2023-05-24T06:59:44.381Z,1023.18
2023-05-24T07:00:44.804Z,1023.18
2023-05-24T07:01:44.444Z,1023.23
2023-05-24T07:02:44.467Z,1023.2
2023-05-24T07:03:44.385Z,1023.23
2023-05-24T07:04:44.472Z,1023.23
2023-05-24T07:05:44.380Z,1023.15
2023-05-24T07:06:44.402Z,1023.15
2023-05-24T07:07:44.396Z,1023.14
2023-05-24T07:08:44.393Z,1023.24
2023-05-24T07:09:44.392Z,1023.23
2023-05-24T07:10:44.633Z,1023.22
2023-05-24T07:11:44.393Z,1023.22
2023-05-24T07:12:44.375Z,1023.27
2023-05-24T07:13:44.382Z,1023.21
2023-05-24T07:14:44.398Z,1023.22
2023-05-24T07:15:44.384Z,1023.16
2023-05-24T07:16:44.397Z,1023.2
2023-05-24T07:17:44.470Z,1023.16
2023-05-24T07:18:44.365Z,1023.18
2023-05-24T07:19:44.378Z,1023.22
2023-05-24T07:20:44.788Z,1023.15
2023-05-24T07:21:44.382Z,1023.16
2023-05-24T07:22:44.381Z,1023.18
2023-05-24T07:23:44.382Z,1023.19
2023-05-24T07:24:44.391Z,1023.18
2023-05-24T07:25:44.366Z,1023.17
2023-05-24T07:26:44.390Z,1023.17
2023-05-24T07:27:44.383Z,1023.21
2023-05-24T07:28:44.382Z,1023.19
2023-05-24T07:29:46.900Z,1023.22
2023-05-24T07:30:44.382Z,1023.22
2023-05-24T07:31:44.416Z,1023.24
2023-05-24T07:32:44.511Z,1023.24
2023-05-24T07:33:44.400Z,1023.25
2023-05-24T07:34:44.374Z,1023.28
2023-05-24T07:35:44.384Z,1023.26
2023-05-24T07:36:44.379Z,1023.27
2023-05-24T07:37:44.374Z,1023.29
2023-05-24T07:38:44.377Z,1023.25
2023-05-24T07:39:44.375Z,1023.26
2023-05-24T07:40:44.558Z,1023.28
2023-05-24T07:41:44.384Z,1023.35
2023-05-24T07:42:44.375Z,1023.33
2023-05-24T07:43:44.379Z,1023.31
2023-05-24T07:44:44.383Z,1023.27
2023-05-24T07:45:44.605Z,1023.34
2023-05-24T07:46:44.406Z,1023.37
2023-05-24T07:47:44.421Z,1023.34
2023-05-24T07:48:44.376Z,1023.38
2023-05-24T07:49:44.389Z,1023.38
2023-05-24T07:50:44.498Z,1023.42
2023-05-24T07:51:44.373Z,1023.44
2023-05-24T07:52:44.377Z,1023.43
2023-05-24T07:53:44.381Z,1023.4
2023-05-24T07:54:44.387Z,1023.43
2023-05-24T07:55:44.574Z,1023.35
2023-05-24T07:56:44.378Z,1023.4
2023-05-24T07:57:44.380Z,1023.38
2023-05-24T07:58:44.386Z,1023.37
2023-05-24T07:59:44.375Z,1023.38
2023-05-24T08:00:44.388Z,1023.42
2023-05-24T08:01:44.395Z,1023.42
2023-05-24T08:02:44.497Z,1023.44
2023-05-24T08:03:44.509Z,1023.45
2023-05-24T08:04:44.375Z,1023.46
2023-05-24T08:05:44.715Z,1023.47
2023-05-24T08:06:44.464Z,1023.49
2023-05-24T08:07:44.373Z,1023.48
2023-05-24T08:08:44.385Z,1023.52
2023-05-24T08:09:44.381Z,1023.51
2023-05-24T08:10:44.393Z,1023.49
2023-05-24T08:11:44.381Z,1023.48
2023-05-24T08:12:44.386Z,1023.51
2023-05-24T08:13:44.378Z,1023.54
2023-05-24T08:14:44.434Z,1023.52
2023-05-24T08:15:44.574Z,1023.5
2023-05-24T08:16:44.536Z,1023.49
2023-05-24T08:17:44.459Z,1023.53
2023-05-24T08:18:44.379Z,1023.52
2023-05-24T08:19:44.375Z,1023.52
2023-05-24T08:20:44.415Z,1023.58
2023-05-24T08:21:44.394Z,1023.51
2023-05-24T08:22:44.385Z,1023.5
2023-05-24T08:23:44.382Z,1023.53
2023-05-24T08:24:44.379Z,1023.56
2023-05-24T08:25:44.595Z,1023.54
2023-05-24T08:26:44.386Z,1023.57
2023-05-24T08:27:44.400Z,1023.59
2023-05-24T08:28:44.370Z,1023.6
2023-05-24T08:29:44.367Z,1023.62
2023-05-24T08:30:44.394Z,1023.57
2023-05-24T08:31:44.445Z,1023.61
2023-05-24T08:32:44.427Z,1023.6
2023-05-24T08:33:44.383Z,1023.63
2023-05-24T08:34:44.382Z,1023.61
2023-05-24T08:35:44.581Z,1023.61
2023-05-24T08:36:44.377Z,1023.62
2023-05-24T08:37:44.370Z,1023.62
2023-05-24T08:38:44.377Z,1023.66
2023-05-24T08:39:44.373Z,1023.64
2023-05-24T08:40:44.395Z,1023.68
2023-05-24T08:41:47.520Z,1023.71
2023-05-24T08:42:44.385Z,1023.69
2023-05-24T08:43:44.400Z,1023.7
2023-05-24T08:44:44.383Z,1023.74
2023-05-24T08:45:44.977Z,1023.77
2023-05-24T08:46:44.428Z,1023.83
2023-05-24T08:47:44.446Z,1023.8
2023-05-24T08:48:44.400Z,1023.82
2023-05-24T08:49:44.385Z,1023.78
2023-05-24T08:50:44.375Z,1023.82
2023-05-24T08:51:44.371Z,1023.84
2023-05-24T08:52:44.375Z,1023.84
2023-05-24T08:53:44.372Z,1023.86
2023-05-24T08:54:44.388Z,1023.84
2023-05-24T08:55:44.603Z,1023.83
2023-05-24T08:56:44.374Z,1023.83
2023-05-24T08:57:44.381Z,1023.8
2023-05-24T08:58:44.376Z,1023.8
2023-05-24T08:59:44.400Z,1023.82
2023-05-24T09:00:44.389Z,1023.81
2023-05-24T09:01:44.468Z,1023.85
2023-05-24T09:02:44.468Z,1023.82
2023-05-24T09:03:44.422Z,1023.78
2023-05-24T09:04:44.498Z,1023.83
2023-05-24T09:05:44.531Z,1023.82
2023-05-24T09:06:44.384Z,1023.86
2023-05-24T09:07:44.382Z,1023.84
2023-05-24T09:08:44.389Z,1023.81
2023-05-24T09:09:44.383Z,1023.78
2023-05-24T09:10:53.923Z,1023.84
2023-05-24T09:11:44.377Z,1023.83
2023-05-24T09:12:44.393Z,1023.83
2023-05-24T09:13:44.394Z,1023.84
2023-05-24T09:14:44.377Z,1023.82
2023-05-24T09:15:44.612Z,1023.87
2023-05-24T09:16:44.432Z,1023.87
2023-05-24T09:17:44.400Z,1023.85
2023-05-24T09:18:44.377Z,1023.84
2023-05-24T09:19:44.364Z,1023.83
2023-05-24T09:20:44.688Z,1023.85
2023-05-24T09:21:44.373Z,1023.87
2023-05-24T09:22:44.387Z,1023.88
2023-05-24T09:23:44.390Z,1023.89
2023-05-24T09:24:44.382Z,1023.89
2023-05-24T09:25:44.382Z,1023.91
2023-05-24T09:26:44.367Z,1023.94
2023-05-24T09:27:46.133Z,1023.96
2023-05-24T09:28:44.378Z,1023.98
2023-05-24T09:29:44.377Z,1023.98
2023-05-24T09:30:44.603Z,1023.95
2023-05-24T09:31:44.428Z,1023.95
2023-05-24T09:32:44.495Z,1023.9
2023-05-24T09:33:44.377Z,1023.94
2023-05-24T09:34:44.370Z,1023.91
2023-05-24T09:35:44.384Z,1023.84
2023-05-24T09:36:44.375Z,1023.82
2023-05-24T09:37:44.392Z,1023.81
2023-05-24T09:38:44.375Z,1023.74
2023-05-24T09:39:44.375Z,1023.76
2023-05-24T09:40:44.463Z,1023.71
2023-05-24T09:41:44.390Z,1023.73
2023-05-24T09:42:44.388Z,1023.71
2023-05-24T09:43:44.373Z,1023.74
2023-05-24T09:44:44.380Z,1023.75
2023-05-24T09:45:44.419Z,1023.8
2023-05-24T09:46:44.415Z,1023.78
2023-05-24T09:47:44.438Z,1023.77
2023-05-24T09:48:44.377Z,1023.83
2023-05-24T09:49:45.533Z,1023.81
2023-05-24T09:50:44.642Z,1023.82
2023-05-24T09:51:44.433Z,1023.88
2023-05-24T09:52:44.387Z,1023.8
2023-05-24T09:53:44.376Z,1023.83
2023-05-24T09:54:44.384Z,1023.86
2023-05-24T09:55:44.380Z,1023.83
2023-05-24T09:56:44.386Z,1023.86
2023-05-24T09:57:44.391Z,1023.85
2023-05-24T09:58:44.379Z,1023.91
2023-05-24T09:59:44.387Z,1023.91
2023-05-24T10:00:44.607Z,1023.88
2023-05-24T10:01:44.437Z,1023.91
2023-05-24T10:02:52.340Z,1023.85
2023-05-24T10:03:44.434Z,1023.86
2023-05-24T10:04:44.423Z,1023.85
2023-05-24T10:05:44.396Z,1023.84
2023-05-24T10:06:44.386Z,1023.76
2023-05-24T10:07:44.379Z,1023.7
2023-05-24T10:08:44.390Z,1023.75
2023-05-24T10:09:44.401Z,1023.73
2023-05-24T10:10:44.841Z,1023.73
2023-05-24T10:11:44.389Z,1023.76
2023-05-24T10:12:44.373Z,1023.84
2023-05-24T10:13:44.377Z,1023.78
2023-05-24T10:14:44.389Z,1023.81
2023-05-24T10:15:44.377Z,1023.78
2023-05-24T10:16:44.438Z,1023.77
2023-05-24T10:17:44.522Z,1023.83
2023-05-24T10:18:44.371Z,1023.73
2023-05-24T10:19:44.398Z,1023.84
2023-05-24T10:20:45.041Z,1023.82
2023-05-24T10:21:44.407Z,1023.82
2023-05-24T10:22:44.387Z,1023.83
2023-05-24T10:23:44.393Z,1023.8
2023-05-24T10:24:44.388Z,1023.81
2023-05-24T10:25:44.381Z,1023.73
2023-05-24T10:26:44.378Z,1023.71
2023-05-24T10:27:44.379Z,1023.78
2023-05-24T10:28:44.391Z,1023.72
2023-05-24T10:29:44.389Z,1023.76
2023-05-24T10:30:44.615Z,1023.75
2023-05-24T10:31:44.450Z,1023.8
2023-05-24T10:32:44.461Z,1023.77
2023-05-24T10:33:44.399Z,1023.78
2023-05-24T10:34:44.388Z,1023.78
2023-05-24T10:35:44.365Z,1023.77
2023-05-24T10:36:44.379Z,1023.8
2023-05-24T10:37:44.391Z,1023.78
2023-05-24T10:38:44.376Z,1023.82
2023-05-24T10:39:44.373Z,1023.77
2023-05-24T10:40:44.384Z,1023.85
2023-05-24T10:41:44.376Z,1023.76
2023-05-24T10:42:44.379Z,1023.84
2023-05-24T10:43:50.577Z,1023.83
2023-05-24T10:44:44.397Z,1023.84
2023-05-24T10:45:44.375Z,1023.85
2023-05-24T10:46:44.458Z,1023.87
2023-05-24T10:47:44.415Z,1023.89
2023-05-24T10:48:44.377Z,1023.93
2023-05-24T10:49:44.376Z,1023.93
2023-05-24T10:50:44.828Z,1023.99
2023-05-24T10:51:44.378Z,1023.95
2023-05-24T10:52:44.391Z,1024
2023-05-24T10:53:44.372Z,1023.99
2023-05-24T10:54:55.949Z,1023.99
2023-05-24T10:55:44.377Z,1024.06
2023-05-24T10:56:44.402Z,1024.05
2023-05-24T10:57:44.411Z,1024.13
2023-05-24T10:58:44.371Z,1024.1
2023-05-24T10:59:44.383Z,1024.12
2023-05-24T11:00:44.390Z,1024.19
2023-05-24T11:01:44.431Z,1024.21
2023-05-24T11:02:44.446Z,1024.19
2023-05-24T11:03:44.390Z,1024.2
2023-05-24T11:04:44.370Z,1024.24
2023-05-24T11:05:46.500Z,1024.24
2023-05-24T11:06:44.383Z,1024.26
2023-05-24T11:07:44.381Z,1024.29
2023-05-24T11:08:44.377Z,1024.24
2023-05-24T11:09:44.384Z,1024.28
2023-05-24T11:10:44.775Z,1024.27
2023-05-24T11:11:44.445Z,1024.26
2023-05-24T11:12:44.383Z,1024.29
2023-05-24T11:13:44.376Z,1024.32
2023-05-24T11:14:44.373Z,1024.3
2023-05-24T11:15:44.397Z,1024.26
2023-05-24T11:16:44.483Z,1024.3
2023-05-24T11:17:44.441Z,1024.32
2023-05-24T11:18:44.383Z,1024.27
2023-05-24T11:19:44.391Z,1024.28
2023-05-24T11:20:44.720Z,1024.34
2023-05-24T11:21:44.464Z,1024.32
2023-05-24T11:22:44.382Z,1024.33
2023-05-24T11:23:44.398Z,1024.41
2023-05-24T11:24:44.395Z,1024.4
2023-05-24T11:25:44.381Z,1024.41
2023-05-24T11:26:44.376Z,1024.35
2023-05-24T11:27:44.383Z,1024.42
2023-05-24T11:28:44.394Z,1024.38
2023-05-24T11:29:44.383Z,1024.36
2023-05-24T11:30:44.702Z,1024.4
2023-05-24T11:31:44.894Z,1024.43
2023-05-24T11:32:44.440Z,1024.37
2023-05-24T11:33:44.399Z,1024.39
2023-05-24T11:34:44.400Z,1024.38
2023-05-24T11:35:44.381Z,1024.4
2023-05-24T11:36:44.366Z,1024.36
2023-05-24T11:37:46.640Z,1024.39
2023-05-24T11:38:44.400Z,1024.33
2023-05-24T11:39:44.390Z,1024.35
2023-05-24T11:40:44.520Z,1024.34
2023-05-24T11:41:44.475Z,1024.32
2023-05-24T11:42:44.388Z,1024.24
2023-05-24T11:43:44.381Z,1024.28
2023-05-24T11:44:44.378Z,1024.3
2023-05-24T11:45:44.417Z,1024.34
2023-05-24T11:46:44.403Z,1024.35
2023-05-24T11:47:44.425Z,1024.37
2023-05-24T11:48:44.381Z,1024.34
2023-05-24T11:49:44.393Z,1024.36
2023-05-24T11:51:44.415Z,1024.4
2023-05-24T11:52:44.387Z,1024.39
2023-05-24T11:53:44.382Z,1024.44
2023-05-24T11:54:44.384Z,1024.42
2023-05-24T11:55:44.494Z,1024.46
2023-05-24T11:56:44.382Z,1024.5
2023-05-24T11:57:44.390Z,1024.46
2023-05-24T11:58:44.399Z,1024.52
2023-05-24T11:59:44.382Z,1024.51
2023-05-24T12:00:44.528Z,1024.51
2023-05-24T12:01:44.391Z,1024.54
2023-05-24T12:02:44.525Z,1024.58
2023-05-24T12:03:44.674Z,1024.54
2023-05-24T12:04:44.402Z,1024.6
2023-05-24T12:05:44.368Z,1024.6
2023-05-24T12:06:44.428Z,1024.57
2023-05-24T12:07:44.403Z,1024.58
2023-05-24T12:08:44.385Z,1024.57
2023-05-24T12:09:44.377Z,1024.52
2023-05-24T12:10:44.625Z,1024.53